Time;durP1;ratioP1;P1;durP2;ratioP2;P2;SDS_P1;SDS_P2;PMS_P1;PMS_P2;Temp;Humidity;BMP_temperature;BMP_pressure;BME280_temperature;BME280_humidity;BME280_pressure;Samples;Min_cycle;Max_cycle;Signal;HPM_P1;HPM_P2
2022/08/09 00:00:55;;;;;;;2.67;2.40;;;;;;;18.56;69.74;100463.19;5144357;27;20071;-85
2022/08/09 00:03:21;;;;;;;4.43;2.50;;;;;;;18.60;69.38;100451.78;5129157;27;20114;-85
2022/08/09 00:05:46;;;;;;;3.30;2.40;;;;;;;18.59;69.48;100459.44;5129566;27;20046;-85
2022/08/09 00:08:12;;;;;;;6.15;2.63;;;;;;;18.58;69.46;100451.50;5130332;27;20035;-85
2022/08/09 00:10:38;;;;;;;3.20;2.50;;;;;;;18.48;69.81;100445.13;5111843;28;20039;-88
2022/08/09 00:13:05;;;;;;;3.75;2.60;;;;;;;18.49;70.37;100457.94;5130712;27;20039;-87
2022/08/09 00:15:31;;;;;;;4.40;2.53;;;;;;;18.47;70.52;100445.63;5090819;28;20031;-87
2022/08/09 00:17:57;;;;;;;2.75;2.50;;;;;;;18.54;70.33;100451.69;5108027;28;20042;-86
2022/08/09 00:20:22;;;;;;;6.15;2.80;;;;;;;18.41;70.77;100451.13;5120144;27;20039;-84
2022/08/09 00:22:48;;;;;;;3.05;2.35;;;;;;;18.44;70.72;100452.97;5129568;27;20071;-84
2022/08/09 00:25:14;;;;;;;4.50;2.75;;;;;;;18.36;70.50;100446.19;5129378;27;20083;-85
2022/08/09 00:27:39;;;;;;;3.95;2.92;;;;;;;18.41;70.52;100462.38;5127225;27;20130;-84
2022/08/09 00:30:05;;;;;;;3.88;2.83;;;;;;;18.37;70.92;100461.78;5130076;27;20114;-84
2022/08/09 00:32:31;;;;;;;4.35;2.50;;;;;;;18.32;71.66;100448.41;5133751;27;20043;-84
2022/08/09 00:34:57;;;;;;;4.82;2.65;;;;;;;18.15;72.47;100444.50;5131508;27;20036;-84
2022/08/09 00:37:22;;;;;;;4.20;2.72;;;;;;;18.12;72.56;100442.63;5132080;27;20031;-84
2022/08/09 00:39:48;;;;;;;4.65;2.60;;;;;;;18.13;72.22;100455.41;5129157;27;20524;-83
2022/08/09 00:42:13;;;;;;;5.68;2.75;;;;;;;18.07;72.71;100446.13;5137155;27;20070;-83
2022/08/09 00:44:39;;;;;;;4.45;2.70;;;;;;;18.05;72.78;100452.19;5131828;27;20036;-85
2022/08/09 00:47:05;;;;;;;7.65;3.00;;;;;;;18.05;72.56;100440.97;5130455;27;20035;-84
2022/08/09 00:49:33;;;;;;;3.53;2.70;;;;;;;18.06;72.50;100441.75;5132498;27;20039;-84
2022/08/09 00:51:59;;;;;;;3.38;2.58;;;;;;;18.11;72.54;100455.91;5130261;27;20046;-84
2022/08/09 00:54:24;;;;;;;5.63;2.70;;;;;;;18.05;73.65;100462.66;5113620;27;20408;-83
2022/08/09 00:56:50;;;;;;;4.78;2.90;;;;;;;18.03;73.42;100457.53;5106784;27;20071;-85
2022/08/09 00:59:16;;;;;;;3.58;2.45;;;;;;;18.11;73.56;100467.16;5131778;27;20488;-83
2022/08/09 01:04:34;;;;;;;4.43;2.80;;;;;;;18.22;73.21;100460.97;5031055;22;20406;-80
2022/08/09 01:06:59;;;;;;;3.58;2.55;;;;;;;18.27;72.88;100463.13;5006222;28;20154;-80
2022/08/09 01:09:33;;;;;;;4.40;2.80;;;;;;;18.28;73.44;100467.47;5005782;28;20029;-80
2022/08/09 01:12:24;;;;;;;3.95;3.05;;;;;;;18.16;74.41;100455.22;5070329;28;20057;-80
2022/08/09 01:14:55;;;;;;;6.22;3.25;;;;;;;18.12;75.40;100463.06;5000064;28;20549;-81
2022/08/09 01:17:26;;;;;;;6.13;3.33;;;;;;;18.09;75.64;100452.00;5071312;28;20487;-80
2022/08/09 01:20:22;;;;;;;4.15;3.13;;;;;;;18.17;75.22;100456.78;5068057;28;20517;-90
2022/08/09 01:23:21;;;;;;;4.80;3.35;;;;;;;18.10;76.21;100459.19;5004391;28;20058;-80
2022/08/09 01:26:08;;;;;;;5.25;3.10;;;;;;;17.99;76.54;100456.94;4998940;28;20169;-80
2022/08/09 01:28:37;;;;;;;4.35;2.97;;;;;;;17.92;76.61;100448.06;5088872;28;20085;-80
2022/08/09 01:31:04;;;;;;;4.45;2.80;;;;;;;17.97;76.30;100451.00;5006314;28;20087;-81
2022/08/09 01:33:33;;;;;;;5.53;3.35;;;;;;;17.92;77.04;100453.69;5074365;28;20506;-81
2022/08/09 01:36:06;;;;;;;5.35;3.30;;;;;;;17.85;77.52;100443.59;5073025;28;20069;-82
2022/08/09 01:38:35;;;;;;;4.35;3.25;;;;;;;17.81;78.04;100436.59;5008597;28;20081;-82
2022/08/09 01:41:07;;;;;;;4.35;2.90;;;;;;;17.81;77.47;100442.22;5082288;28;20529;-90
2022/08/09 01:43:34;;;;;;;5.30;3.05;;;;;;;17.84;77.65;100441.25;5069324;28;20050;-91
2022/08/09 01:46:00;;;;;;;4.90;3.13;;;;;;;17.82;77.36;100450.19;5057614;28;20084;-91
2022/08/09 01:48:26;;;;;;;4.15;2.83;;;;;;;17.83;76.75;100451.72;4992327;28;20096;-91
2022/08/09 01:50:53;;;;;;;4.10;2.75;;;;;;;17.88;76.60;100450.28;5077384;28;20085;-91
2022/08/09 01:53:21;;;;;;;4.35;2.63;;;;;;;17.86;75.50;100455.59;5006525;28;20061;-92
2022/08/09 01:55:49;;;;;;;6.65;2.95;;;;;;;17.82;75.33;100444.56;5064688;28;20205;-92
2022/08/09 01:58:15;;;;;;;4.38;2.75;;;;;;;17.79;75.70;100451.13;4994889;28;20503;-91
2022/08/09 02:00:42;;;;;;;7.30;3.25;;;;;;;17.80;75.80;100460.31;5076850;28;20046;-82
2022/08/09 02:03:08;;;;;;;3.92;2.92;;;;;;;17.86;75.16;100438.75;5073228;28;20046;-81
2022/08/09 02:05:35;;;;;;;5.50;2.95;;;;;;;17.88;75.17;100453.88;5092751;28;20048;-82
2022/08/09 02:08:08;;;;;;;3.45;2.90;;;;;;;17.88;74.94;100455.88;5096737;28;20443;-81
2022/08/09 02:10:39;;;;;;;5.80;2.83;;;;;;;17.88;75.05;100467.13;5012272;28;20038;-82
2022/08/09 02:13:06;;;;;;;5.25;3.42;;;;;;;17.82;75.41;100457.81;5093516;28;20063;-81
2022/08/09 02:15:33;;;;;;;4.18;3.13;;;;;;;17.84;75.14;100456.06;5013341;28;20045;-82
2022/08/09 02:17:59;;;;;;;6.50;3.30;;;;;;;17.77;75.68;100452.84;5076386;28;20045;-92
2022/08/09 02:20:27;;;;;;;6.78;3.08;;;;;;;17.76;75.56;100456.91;5059421;28;20073;-90
2022/08/09 02:22:59;;;;;;;6.10;3.30;;;;;;;17.71;75.93;100441.50;5019714;28;20098;-92
2022/08/09 02:25:30;;;;;;;3.90;3.15;;;;;;;17.74;75.72;100457.38;5093574;28;20452;-90
2022/08/09 02:28:06;;;;;;;5.47;3.20;;;;;;;17.69;75.67;100450.41;5008136;28;20042;-91
2022/08/09 02:30:42;;;;;;;3.70;2.90;;;;;;;17.68;75.51;100443.22;5026324;28;20073;-92
2022/08/09 02:33:15;;;;;;;4.40;2.83;;;;;;;17.68;75.44;100446.03;5092610;28;20053;-92
2022/08/09 02:35:41;;;;;;;4.38;3.10;;;;;;;17.65;75.69;100440.59;5085102;28;20102;-91
2022/08/09 02:38:08;;;;;;;4.45;2.83;;;;;;;17.65;75.52;100447.00;5094898;28;20034;-82
2022/08/09 02:40:36;;;;;;;5.85;3.28;;;;;;;17.60;76.15;100444.81;5081070;28;20352;-81
2022/08/09 02:43:02;;;;;;;5.10;3.13;;;;;;;17.52;76.24;100435.19;5089155;28;20034;-82
2022/08/09 02:45:38;;;;;;;7.75;3.42;;;;;;;17.49;76.26;100438.16;5092337;28;20406;-82
2022/08/09 02:48:08;;;;;;;4.65;3.22;;;;;;;17.46;76.34;100439.91;5009027;28;20038;-82
2022/08/09 02:50:39;;;;;;;5.50;3.20;;;;;;;17.47;76.19;100435.06;5075934;28;20499;-82
2022/08/09 02:53:17;;;;;;;4.72;3.30;;;;;;;17.43;76.69;100423.25;5019348;28;20479;-82
2022/08/09 02:55:44;;;;;;;7.43;3.30;;;;;;;17.44;76.21;100433.97;5076884;28;20468;-82
2022/08/09 02:58:10;;;;;;;4.78;3.50;;;;;;;17.41;76.67;100425.72;5090329;28;20052;-91
2022/08/09 03:00:37;;;;;;;3.75;3.10;;;;;;;17.38;76.49;100412.66;5011409;28;20030;-91
2022/08/09 03:03:04;;;;;;;5.18;3.30;;;;;;;17.34;76.69;100415.66;5095256;28;20046;-90
2022/08/09 03:05:31;;;;;;;5.32;3.35;;;;;;;17.30;76.24;100401.03;5077516;28;20521;-91
2022/08/09 03:07:57;;;;;;;4.57;3.10;;;;;;;17.30;76.60;100408.66;5076294;28;20235;-89
2022/08/09 03:10:24;;;;;;;5.57;3.17;;;;;;;17.23;76.62;100402.13;5076910;28;20061;-91
2022/08/09 03:12:50;;;;;;;5.50;3.28;;;;;;;17.24;77.02;100416.94;5091494;28;20097;-91
2022/08/09 03:15:15;;;;;;;6.93;3.40;;;;;;;17.20;76.93;100405.09;5095890;28;20121;-82
2022/08/09 03:17:42;;;;;;;5.57;3.25;;;;;;;17.19;77.53;100406.34;5024384;28;20049;-81
2022/08/09 03:20:08;;;;;;;4.50;3.53;;;;;;;17.15;77.23;100402.94;5082094;28;20054;-82
2022/08/09 03:22:39;;;;;;;7.07;3.40;;;;;;;17.11;77.44;100402.34;5014222;28;20128;-81
2022/08/09 03:25:06;;;;;;;6.32;3.60;;;;;;;17.07;77.58;100404.53;5014684;28;20550;-82
2022/08/09 03:27:33;;;;;;;5.13;3.95;;;;;;;17.05;77.82;100407.03;5008073;28;20034;-82
2022/08/09 03:29:59;;;;;;;5.00;3.60;;;;;;;17.07;77.33;100407.34;5074889;28;20817;-81
2022/08/09 03:32:24;;;;;;;5.97;3.47;;;;;;;16.98;77.33;100388.56;5077365;28;20042;-82
2022/08/09 03:34:50;;;;;;;5.35;3.17;;;;;;;17.04;77.24;100406.25;5010346;28;20033;-91
2022/08/09 03:37:16;;;;;;;3.83;3.28;;;;;;;17.04;77.30;100402.69;5008321;28;20850;-90
2022/08/09 03:39:44;;;;;;;6.22;3.50;;;;;;;17.03;77.24;100398.31;5009273;28;20487;-90
2022/08/09 03:42:09;;;;;;;5.95;3.60;;;;;;;17.02;77.06;100399.59;5016876;28;20128;-90
2022/08/09 03:44:35;;;;;;;4.32;3.20;;;;;;;17.01;77.16;100392.41;5018241;28;20036;-90
2022/08/09 03:47:00;;;;;;;5.65;3.67;;;;;;;16.99;77.25;100394.91;5075830;28;20083;-90
2022/08/09 03:49:26;;;;;;;5.85;3.78;;;;;;;16.92;78.48;100392.44;5008747;28;20495;-91
2022/08/09 03:51:55;;;;;;;9.55;3.95;;;;;;;16.95;78.53;100399.91;5080465;28;20113;-82
2022/08/09 03:54:23;;;;;;;5.00;3.30;;;;;;;16.95;78.23;100399.91;5074832;28;20045;-91
2022/08/09 03:56:49;;;;;;;4.38;3.20;;;;;;;16.97;76.81;100398.19;5078597;28;20057;-90
2022/08/09 03:59:14;;;;;;;4.80;3.60;;;;;;;16.99;76.69;100394.91;5063153;28;20038;-90
2022/08/09 04:01:40;;;;;;;6.22;3.40;;;;;;;16.96;77.09;100393.06;5012161;28;20045;-90
2022/08/09 04:04:06;;;;;;;7.43;3.58;;;;;;;16.95;76.74;100394.28;5087419;28;20117;-91
2022/08/09 04:06:32;;;;;;;4.97;3.30;;;;;;;16.93;76.94;100396.81;5090989;28;20182;-90
2022/08/09 04:09:01;;;;;;;4.40;3.38;;;;;;;16.96;76.56;100398.66;5085136;28;20046;-89
2022/08/09 04:11:40;;;;;;;5.00;3.30;;;;;;;16.97;76.35;100392.59;5020516;28;20125;-81
2022/08/09 04:14:06;;;;;;;5.05;3.47;;;;;;;16.96;76.33;100396.63;5071730;28;20046;-90
2022/08/09 04:16:31;;;;;;;4.53;3.42;;;;;;;16.97;76.54;100394.63;5030837;28;20034;-91
2022/08/09 04:18:57;;;;;;;7.90;3.40;;;;;;;16.98;76.02;100390.56;5031126;28;20037;-90
2022/08/09 04:21:23;;;;;;;3.95;3.30;;;;;;;16.98;75.76;100387.78;5020088;28;20653;-89
2022/08/09 04:23:48;;;;;;;5.70;3.38;;;;;;;17.02;75.81;100393.97;5098843;28;20124;-90
2022/08/09 04:26:13;;;;;;;5.35;3.53;;;;;;;17.00;75.58;100390.88;5019858;28;20117;-90
2022/08/09 04:28:39;;;;;;;6.60;3.17;;;;;;;17.03;75.44;100389.91;5011119;28;20479;-81
2022/08/09 04:31:05;;;;;;;4.30;3.22;;;;;;;17.01;75.31;100395.22;5011850;28;20046;-80
2022/08/09 04:33:31;;;;;;;5.03;3.58;;;;;;;17.08;75.18;100403.28;5018551;28;20048;-89
2022/08/09 04:35:56;;;;;;;8.88;3.55;;;;;;;17.10;75.10;100406.41;5011169;28;20054;-90
2022/08/09 04:38:22;;;;;;;5.32;3.55;;;;;;;17.13;74.92;100405.47;5023918;28;20113;-90
2022/08/09 04:40:47;;;;;;;6.40;3.38;;;;;;;17.18;74.47;100413.22;5021129;28;20116;-89
2022/08/09 04:43:16;;;;;;;4.63;3.15;;;;;;;17.21;74.17;100412.28;5094378;28;20116;-90
2022/08/09 04:45:42;;;;;;;5.88;3.30;;;;;;;17.26;73.72;100420.06;5017693;28;20485;-90
2022/08/09 04:48:08;;;;;;;4.90;3.55;;;;;;;17.29;73.27;100410.69;5013608;28;20077;-90
2022/08/09 04:50:33;;;;;;;5.65;3.35;;;;;;;17.32;73.35;100412.53;5077334;28;20065;-89
2022/08/09 04:52:59;;;;;;;8.70;3.50;;;;;;;17.36;72.75;100406.75;5091056;28;20080;-91
2022/08/09 04:55:25;;;;;;;6.55;3.22;;;;;;;17.37;72.57;100403.47;5089974;28;20037;-88
2022/08/09 04:57:51;;;;;;;5.97;3.60;;;;;;;17.43;72.33;100400.81;5028149;28;20545;-90
2022/08/09 05:00:17;;;;;;;6.32;3.17;;;;;;;17.57;72.05;100406.50;5028573;28;20099;-90
2022/08/09 05:02:43;;;;;;;4.95;3.17;;;;;;;17.70;71.22;100403.47;5086418;28;20084;-90
2022/08/09 05:05:09;;;;;;;8.07;2.92;;;;;;;17.84;70.52;100401.97;5027317;28;20046;-90
2022/08/09 05:07:35;;;;;;;4.63;3.13;;;;;;;17.96;70.10;100409.38;5031144;28;20045;-92
2022/08/09 05:10:00;;;;;;;3.42;2.83;;;;;;;18.13;69.50;100413.31;5097417;28;20057;-81
2022/08/09 05:12:26;;;;;;;5.40;3.47;;;;;;;18.25;68.74;100415.06;5016883;28;20045;-82
2022/08/09 05:14:51;;;;;;;5.32;2.80;;;;;;;18.41;68.74;100417.44;5015560;28;20410;-82
2022/08/09 05:17:17;;;;;;;7.13;3.10;;;;;;;18.55;67.81;100422.34;5006205;28;20128;-81
2022/08/09 05:19:42;;;;;;;4.82;3.00;;;;;;;18.70;66.83;100421.56;5008289;28;20046;-81
2022/08/09 05:22:11;;;;;;;4.13;2.78;;;;;;;18.75;65.62;100421.66;5018916;28;20034;-81
2022/08/09 05:24:37;;;;;;;4.75;2.92;;;;;;;18.80;64.95;100418.19;5016692;28;20038;-81
2022/08/09 05:27:02;;;;;;;6.53;3.13;;;;;;;18.91;64.61;100426.03;5018151;28;20474;-79
2022/08/09 05:29:28;;;;;;;5.88;3.10;;;;;;;18.97;63.87;100436.09;5020451;28;20478;-90
2022/08/09 05:31:58;;;;;;;4.50;2.83;;;;;;;19.01;63.28;100441.53;5022610;28;20033;-89
2022/08/09 05:34:29;;;;;;;3.65;2.75;;;;;;;18.94;63.16;100445.50;5095322;28;20052;-90
2022/08/09 05:36:55;;;;;;;4.07;2.65;;;;;;;19.02;62.96;100432.63;5097397;28;20388;-90
2022/08/09 05:39:21;;;;;;;6.38;2.90;;;;;;;19.03;62.83;100441.81;5022756;28;20044;-90
2022/08/09 05:41:47;;;;;;;4.20;2.92;;;;;;;19.24;62.86;100445.50;5019932;28;20478;-90
2022/08/09 05:44:12;;;;;;;4.55;3.13;;;;;;;19.32;61.51;100450.25;5019703;28;20041;-90
2022/08/09 05:46:38;;;;;;;3.88;2.72;;;;;;;19.33;61.86;100451.75;5017889;28;20049;-88
2022/08/09 05:49:03;;;;;;;4.95;2.80;;;;;;;19.37;61.21;100449.53;5018318;28;20077;-81
2022/08/09 05:51:29;;;;;;;4.00;2.75;;;;;;;19.37;61.74;100457.22;5086620;28;20030;-81
2022/08/09 05:53:54;;;;;;;3.83;2.80;;;;;;;19.36;61.21;100456.44;5017049;28;20112;-81
2022/08/09 05:56:20;;;;;;;5.80;3.00;;;;;;;19.59;61.60;100456.78;5018058;28;20049;-81
2022/08/09 05:58:46;;;;;;;6.55;2.75;;;;;;;19.83;60.48;100460.22;5018336;28;20041;-81
2022/08/09 06:01:11;;;;;;;5.25;3.00;;;;;;;19.90;59.88;100454.94;5016354;28;20042;-81
2022/08/09 06:03:37;;;;;;;7.80;2.90;;;;;;;19.97;59.48;100453.78;5094810;28;20092;-81
2022/08/09 06:06:02;;;;;;;4.57;2.50;;;;;;;20.09;59.33;100458.28;5018031;28;20042;-81
2022/08/09 06:08:28;;;;;;;3.85;2.70;;;;;;;20.00;58.85;100449.97;5091098;28;20176;-90
2022/08/09 06:10:54;;;;;;;6.45;3.00;;;;;;;20.16;58.54;100455.03;5019709;28;20070;-90
2022/08/09 06:13:20;;;;;;;4.25;2.60;;;;;;;20.22;58.48;100455.88;5082166;28;20053;-90
2022/08/09 06:15:46;;;;;;;5.32;2.78;;;;;;;20.34;58.41;100454.75;5076665;28;20045;-89
2022/08/09 06:18:12;;;;;;;7.80;3.00;;;;;;;20.34;57.64;100454.00;5076030;28;20171;-89
2022/08/09 06:20:37;;;;;;;6.25;2.63;;;;;;;20.37;57.65;100450.97;5009019;28;20133;-90
2022/08/09 06:23:03;;;;;;;5.55;2.90;;;;;;;20.48;58.28;100445.47;5009155;28;20053;-90
2022/08/09 06:25:28;;;;;;;3.65;2.83;;;;;;;20.64;57.33;100446.91;5009316;28;20049;-89
2022/08/09 06:27:54;;;;;;;5.30;3.08;;;;;;;20.71;57.27;100456.97;5076691;28;20513;-81
2022/08/09 06:30:22;;;;;;;8.93;2.95;;;;;;;21.01;55.72;100449.84;5007886;28;20029;-81
2022/08/09 06:32:50;;;;;;;5.93;3.28;;;;;;;21.18;55.16;100456.44;5076672;28;20461;-81
2022/08/09 06:35:15;;;;;;;7.70;3.00;;;;;;;21.30;53.99;100460.88;5075054;28;20046;-81
2022/08/09 06:37:41;;;;;;;7.70;2.90;;;;;;;21.34;54.58;100464.25;5008927;28;20162;-81
2022/08/09 06:40:07;;;;;;;6.78;3.20;;;;;;;21.35;54.40;100462.94;5008812;28;20025;-81
2022/08/09 06:42:32;;;;;;;5.97;2.88;;;;;;;21.30;54.83;100465.75;5093319;28;20429;-81
2022/08/09 06:44:58;;;;;;;11.20;3.28;;;;;;;21.53;54.63;100466.69;5075978;28;20046;-81
2022/08/09 06:47:24;;;;;;;8.30;3.03;;;;;;;21.65;54.10;100468.31;5059759;28;20128;-89
2022/08/09 06:49:50;;;;;;;6.68;2.88;;;;;;;21.93;53.95;100483.41;5076473;28;20029;-90
2022/08/09 06:52:16;;;;;;;8.35;2.85;;;;;;;22.08;54.24;100484.00;5008575;28;20116;-90
2022/08/09 06:54:42;;;;;;;4.78;2.60;;;;;;;22.32;54.12;100477.97;5008529;28;20038;-90
2022/08/09 06:57:08;;;;;;;8.90;3.53;;;;;;;22.57;52.10;100476.22;5008676;28;20392;-91
2022/08/09 06:59:33;;;;;;;5.18;2.83;;;;;;;22.40;51.63;100470.53;5008174;28;20038;-90
2022/08/09 07:01:59;;;;;;;4.50;2.95;;;;;;;22.51;53.13;100486.75;5092798;28;20054;-89
2022/08/09 07:04:24;;;;;;;4.03;2.97;;;;;;;22.78;51.73;100471.94;5012800;28;20042;-82
2022/08/09 07:06:50;;;;;;;6.80;2.72;;;;;;;23.04;51.86;100481.00;5008724;28;20385;-81
2022/08/09 07:09:15;;;;;;;6.80;3.00;;;;;;;23.23;51.39;100484.84;5008304;28;20065;-81
2022/08/09 07:11:41;;;;;;;5.45;3.38;;;;;;;23.37;50.38;100485.91;5019973;28;20410;-81
2022/08/09 07:14:06;;;;;;;7.18;3.25;;;;;;;23.34;49.61;100478.41;5028201;28;20048;-81
2022/08/09 07:16:32;;;;;;;7.40;3.47;;;;;;;23.23;49.78;100489.75;5027663;28;20038;-81
2022/08/09 07:18:58;;;;;;;4.97;2.90;;;;;;;22.90;50.65;100487.66;5026050;28;20029;-81
2022/08/09 07:21:23;;;;;;;4.85;2.85;;;;;;;23.03;51.38;100479.44;5020828;28;20033;-81
2022/08/09 07:23:49;;;;;;;9.90;2.90;;;;;;;23.25;50.58;100478.69;5027928;28;20086;-89
2022/08/09 07:26:14;;;;;;;11.25;3.08;;;;;;;23.17;51.24;100489.72;5027773;28;20042;-89
2022/08/09 07:28:40;;;;;;;12.13;3.10;;;;;;;23.28;51.67;100486.16;5027736;28;20102;-88
2022/08/09 07:31:05;;;;;;;5.75;2.55;;;;;;;23.47;50.42;100486.44;5095762;28;20065;-91
2022/08/09 07:33:32;;;;;;;7.15;2.90;;;;;;;23.37;49.85;100482.28;5051419;28;20038;-90
2022/08/09 07:35:57;;;;;;;9.13;3.00;;;;;;;23.50;50.99;100483.31;5006639;28;20121;-90
2022/08/09 07:38:23;;;;;;;6.18;2.90;;;;;;;23.70;49.96;100487.94;5022758;28;20440;-90
2022/08/09 07:40:48;;;;;;;6.38;2.80;;;;;;;23.85;49.88;100484.84;5008990;28;20050;-89
2022/08/09 07:43:14;;;;;;;5.38;2.78;;;;;;;23.75;49.96;100490.00;5011422;28;20042;-81
2022/08/09 07:45:39;;;;;;;5.30;2.75;;;;;;;23.65;49.87;100477.41;5011563;28;20537;-81
2022/08/09 07:48:07;;;;;;;11.00;3.20;;;;;;;23.84;49.76;100492.56;5011208;28;20562;-82
2022/08/09 07:50:34;;;;;;;4.78;3.13;;;;;;;23.94;48.56;100479.66;5062624;28;20102;-81
2022/08/09 07:52:59;;;;;;;5.55;2.95;;;;;;;23.90;49.15;100484.81;5079396;28;20473;-82
2022/08/09 07:55:25;;;;;;;6.65;2.63;;;;;;;24.11;48.82;100486.03;5012145;28;20077;-81
2022/08/09 07:57:50;;;;;;;7.97;2.88;;;;;;;24.27;48.54;100478.03;5135458;27;20066;-82
2022/08/09 08:00:19;;;;;;;8.32;3.00;;;;;;;23.86;48.20;100486.38;5116762;27;20312;-91
2022/08/09 08:02:45;;;;;;;13.00;3.38;;;;;;;24.25;48.60;100483.44;5116752;27;20129;-82
2022/08/09 08:05:11;;;;;;;6.00;3.03;;;;;;;23.91;48.34;100488.41;5135453;27;20039;-81
2022/08/09 08:07:39;;;;;;;6.20;2.72;;;;;;;23.85;47.85;100485.63;5117539;27;20543;-82
2022/08/09 08:10:05;;;;;;;5.78;2.88;;;;;;;23.96;48.37;100496.91;5046678;28;20069;-81
2022/08/09 08:12:31;;;;;;;7.40;3.38;;;;;;;24.39;47.03;100496.53;5028930;28;20050;-82
2022/08/09 08:14:57;;;;;;;6.13;3.00;;;;;;;24.13;46.58;100486.31;5098732;28;20459;-81
2022/08/09 08:17:22;;;;;;;6.85;3.30;;;;;;;23.94;46.77;100493.81;5043431;28;20678;-81
2022/08/09 08:19:48;;;;;;;4.50;2.80;;;;;;;24.09;47.02;100491.47;5039452;27;20066;-82
2022/08/09 08:22:13;;;;;;;6.15;3.20;;;;;;;24.30;47.28;100486.28;5043983;28;20406;-91
2022/08/09 08:24:39;;;;;;;5.45;3.00;;;;;;;24.52;45.26;100489.00;5097107;28;20521;-90
2022/08/09 08:27:04;;;;;;;9.23;3.25;;;;;;;24.16;47.08;100481.69;5097730;28;20041;-90
2022/08/09 08:29:30;;;;;;;7.18;2.97;;;;;;;24.31;46.49;100478.53;5029097;28;20053;-90
2022/08/09 08:31:55;;;;;;;6.35;3.05;;;;;;;24.39;46.63;100485.19;5030783;28;20110;-89
2022/08/09 08:34:21;;;;;;;6.22;2.95;;;;;;;24.44;46.52;100490.06;5098469;28;20535;-90
2022/08/09 08:36:46;;;;;;;4.88;2.80;;;;;;;24.41;46.28;100482.63;5058531;28;20057;-90
2022/08/09 08:39:12;;;;;;;10.93;3.45;;;;;;;24.68;45.99;100483.75;5014068;28;20102;-90
2022/08/09 08:41:38;;;;;;;8.30;3.58;;;;;;;24.98;45.19;100488.25;5009958;28;20034;-81
2022/08/09 08:44:06;;;;;;;6.55;3.22;;;;;;;24.84;45.76;100469.47;5077745;28;20123;-82
2022/08/09 08:46:39;;;;;;;6.78;3.50;;;;;;;25.18;44.68;100470.03;5077332;28;20046;-82
2022/08/09 08:49:07;;;;;;;6.15;3.08;;;;;;;25.29;43.93;100480.53;5077956;28;20045;-82
2022/08/09 08:51:33;;;;;;;4.50;2.88;;;;;;;25.17;45.57;100476.25;5014213;28;20419;-82
2022/08/09 08:54:05;;;;;;;8.95;3.25;;;;;;;25.14;44.75;100471.63;5082441;28;20106;-82
2022/08/09 08:56:35;;;;;;;7.22;3.00;;;;;;;25.26;44.26;100475.91;5088282;28;20073;-82
2022/08/09 08:59:05;;;;;;;5.40;3.10;;;;;;;25.27;44.13;100478.22;5076102;28;20046;-89
2022/08/09 09:01:33;;;;;;;5.75;3.42;;;;;;;25.77;44.33;100486.31;5014785;28;20054;-89
2022/08/09 09:04:00;;;;;;;5.82;3.15;;;;;;;25.91;42.70;100468.09;5078516;28;20046;-89
2022/08/09 09:06:26;;;;;;;4.93;3.50;;;;;;;25.77;42.05;100468.47;5008384;28;20045;-90
2022/08/09 09:08:52;;;;;;;5.22;2.90;;;;;;;25.59;42.97;100463.53;5008983;28;20130;-90
2022/08/09 09:11:17;;;;;;;9.15;3.55;;;;;;;25.86;43.08;100468.91;5065295;27;20068;-90
2022/08/09 09:13:46;;;;;;;7.85;3.05;;;;;;;26.11;42.22;100468.91;5088195;27;20045;-89
2022/08/09 09:16:11;;;;;;;5.07;3.15;;;;;;;26.33;41.33;100463.72;5042739;28;20045;-88
2022/08/09 09:18:37;;;;;;;5.13;2.90;;;;;;;25.99;42.11;100451.97;5047156;27;20044;-82
2022/08/09 09:21:05;;;;;;;4.32;3.10;;;;;;;26.05;42.41;100471.78;5099195;27;20128;-82
2022/08/09 09:23:42;;;;;;;8.25;3.28;;;;;;;25.88;42.17;100463.44;5027150;28;20045;-82
2022/08/09 09:26:09;;;;;;;7.68;3.10;;;;;;;25.76;42.56;100462.03;5030460;27;20189;-82
2022/08/09 09:28:36;;;;;;;6.90;2.92;;;;;;;25.76;43.15;100475.50;5034791;27;20046;-82
2022/08/09 09:31:02;;;;;;;5.65;3.40;;;;;;;25.47;44.11;100452.25;5083626;28;20041;-82
2022/08/09 09:33:35;;;;;;;4.28;2.90;;;;;;;25.39;44.76;100461.88;5109424;27;20516;-82
2022/08/09 09:36:03;;;;;;;6.38;3.38;;;;;;;25.57;44.81;100460.44;5089145;28;20094;-82
2022/08/09 09:38:49;;;;;;;5.45;3.10;;;;;;;25.66;43.52;100463.69;5095406;28;20033;-88
2022/08/09 09:41:21;;;;;;;4.93;3.00;;;;;;;25.42;43.54;100466.47;5097696;28;20041;-90
2022/08/09 09:43:47;;;;;;;6.13;3.25;;;;;;;25.25;44.79;100463.78;5046149;27;20041;-89
2022/08/09 09:46:12;;;;;;;5.07;3.15;;;;;;;25.08;45.88;100461.06;5046328;27;20451;-89
2022/08/09 09:48:37;;;;;;;5.82;3.13;;;;;;;25.17;44.07;100450.69;5046441;27;20049;-89
2022/08/09 09:51:03;;;;;;;9.15;3.50;;;;;;;25.25;44.71;100463.78;5105908;27;20041;-89
2022/08/09 09:53:29;;;;;;;4.80;3.25;;;;;;;25.80;44.30;100459.66;5046493;28;20048;-89
2022/08/09 09:56:00;;;;;;;7.13;3.25;;;;;;;26.28;42.96;100461.75;5040059;27;20055;-82
2022/08/09 09:58:44;;;;;;;6.05;3.20;;;;;;;26.57;41.85;100459.28;5046088;28;20072;-82
2022/08/09 10:01:17;;;;;;;6.15;3.00;;;;;;;26.85;40.17;100457.59;5019978;27;20057;-82
2022/08/09 10:03:45;;;;;;;5.63;3.30;;;;;;;26.89;39.24;100463.75;5042988;27;20064;-83
2022/08/09 10:06:12;;;;;;;6.53;3.22;;;;;;;26.74;39.66;100452.03;5040162;28;20095;-82
2022/08/09 10:08:37;;;;;;;5.93;2.97;;;;;;;26.98;39.64;100461.81;5045585;28;20037;-82
2022/08/09 10:11:29;;;;;;;5.50;3.20;;;;;;;27.20;38.80;100455.75;5089963;27;20050;-82
2022/08/09 10:13:55;;;;;;;4.88;3.22;;;;;;;27.08;39.43;100457.25;5078148;28;20064;-82
2022/08/09 10:16:37;;;;;;;4.88;3.08;;;;;;;27.56;38.53;100451.28;5006488;28;20045;-87
2022/08/09 10:19:08;;;;;;;6.03;3.40;;;;;;;27.35;39.40;100456.03;5075082;28;20636;-90
2022/08/09 10:21:35;;;;;;;6.22;3.30;;;;;;;27.56;41.92;100454.13;5074175;28;20099;-87
2022/08/09 10:24:02;;;;;;;4.75;2.83;;;;;;;28.02;38.02;100457.66;5006705;28;20052;-86
2022/08/09 10:26:29;;;;;;;5.68;2.95;;;;;;;28.10;37.47;100458.56;5006894;28;20464;-88
2022/08/09 10:28:55;;;;;;;3.95;3.17;;;;;;;27.64;37.33;100455.00;5007014;28;20038;-87
2022/08/09 10:31:21;;;;;;;6.50;3.10;;;;;;;27.16;38.94;100452.47;5016581;27;20050;-86
2022/08/09 10:33:47;;;;;;;5.10;3.20;;;;;;;27.45;38.71;100456.38;5015322;28;20494;-86
2022/08/09 10:36:13;;;;;;;5.20;2.90;;;;;;;27.31;38.45;100452.72;5007212;28;20048;-81
2022/08/09 10:38:44;;;;;;;5.55;3.53;;;;;;;27.17;39.63;100448.31;5006207;28;20453;-83
2022/08/09 10:41:11;;;;;;;6.18;3.28;;;;;;;27.20;38.36;100448.00;5006854;28;20041;-82
2022/08/09 10:43:41;;;;;;;10.05;4.10;;;;;;;27.37;39.81;100447.72;5006824;28;20050;-83
2022/08/09 10:46:43;;;;;;;9.65;3.55;;;;;;;27.69;39.22;100454.16;5006481;28;20046;-83
2022/08/09 10:49:19;;;;;;;4.13;3.03;;;;;;;27.26;38.33;100445.03;5006962;28;20077;-82
2022/08/09 10:52:04;;;;;;;7.20;3.20;;;;;;;27.30;39.19;100442.63;5074908;28;20493;-90
2022/08/09 10:54:29;;;;;;;9.40;3.45;;;;;;;27.25;39.67;100444.28;5074249;28;20042;-83
2022/08/09 10:57:07;;;;;;;4.65;3.13;;;;;;;26.99;40.17;100444.19;5007338;28;20046;-82
2022/08/09 10:59:34;;;;;;;5.20;3.33;;;;;;;27.17;40.39;100443.38;5081467;28;20118;-83
2022/08/09 11:02:00;;;;;;;8.82;3.28;;;;;;;27.11;40.16;100445.53;5079977;28;20371;-83
2022/08/09 11:04:29;;;;;;;6.05;2.90;;;;;;;27.24;39.35;100451.28;5022740;27;20045;-83
2022/08/09 11:06:57;;;;;;;5.80;3.20;;;;;;;27.38;40.40;100437.84;5032061;28;20358;-82
2022/08/09 11:09:38;;;;;;;5.32;3.20;;;;;;;27.52;39.18;100439.44;5032721;28;20036;-83
2022/08/09 11:12:16;;;;;;;7.10;3.08;;;;;;;28.06;37.81;100430.38;5033867;27;20041;-89
2022/08/09 11:14:53;;;;;;;5.28;3.33;;;;;;;28.30;37.98;100437.16;5022542;27;20103;-89
2022/08/09 11:17:19;;;;;;;4.65;3.03;;;;;;;28.49;36.68;100432.84;5076187;28;20145;-89
2022/08/09 11:19:53;;;;;;;5.45;3.13;;;;;;;29.04;35.22;100430.00;5039015;27;20128;-90
2022/08/09 11:22:20;;;;;;;4.85;2.80;;;;;;;29.42;35.60;100434.00;5045139;28;21138;-89
2022/08/09 11:25:06;;;;;;;7.65;2.88;;;;;;;29.05;35.08;100429.47;5101638;27;20045;-89
2022/08/09 11:27:35;;;;;;;7.25;3.03;;;;;;;29.08;34.67;100411.19;5006560;28;20078;-90
2022/08/09 11:30:02;;;;;;;4.97;2.90;;;;;;;29.30;33.89;100418.47;5035166;27;20048;-87